Time;durP1;ratioP1;P1;durP2;ratioP2;P2;SDS_P1;SDS_P2;PMS_P1;PMS_P2;Temp;Humidity;BMP_temperature;BMP_pressure;BME280_temperature;BME280_humidity;BME280_pressure;Samples;Min_cycle;Max_cycle;Signal;HPM_P1;HPM_P2
2021/11/30 00:02:01;;;;;;;1.42;1.33;;;12.10;63.20;;;;;;4999551;28;20090;-71
2021/11/30 00:04:29;;;;;;;1.85;1.63;;;12.10;63.20;;;;;;5014589;28;20022;-72
2021/11/30 00:06:57;;;;;;;1.73;1.50;;;12.10;63.20;;;;;;4998191;28;20452;-71
2021/11/30 00:12:07;;;;;;;1.50;1.40;;;12.10;63.20;;;;;;4999704;28;20030;-71
2021/11/30 00:14:33;;;;;;;2.20;1.98;;;12.10;63.10;;;;;;4999431;28;20089;-72
2021/11/30 00:16:59;;;;;;;1.77;1.20;;;12.10;63.10;;;;;;4999277;28;20060;-71
2021/11/30 00:19:25;;;;;;;2.88;1.67;;;12.10;63.10;;;;;;5000360;28;20030;-72
2021/11/30 00:21:51;;;;;;;2.05;1.50;;;12.10;63.10;;;;;;5002800;28;20018;-71
2021/11/30 00:24:17;;;;;;;2.25;1.50;;;12.10;63.20;;;;;;5018239;28;20329;-72
2021/11/30 00:26:42;;;;;;;2.30;1.75;;;12.10;63.20;;;;;;5002827;28;20041;-72
2021/11/30 00:29:08;;;;;;;1.65;1.50;;;12.10;63.20;;;;;;5002692;28;20046;-71
2021/11/30 00:31:34;;;;;;;1.88;1.45;;;12.10;63.20;;;;;;5002634;28;20030;-72
2021/11/30 00:33:59;;;;;;;1.60;1.50;;;12.10;63.20;;;;;;5002734;28;20105;-73
2021/11/30 00:36:25;;;;;;;2.35;1.67;;;12.10;63.10;;;;;;5002505;28;20113;-71
2021/11/30 00:38:51;;;;;;;2.05;1.85;;;12.10;63.20;;;;;;5002487;28;20026;-75
2021/11/30 00:41:17;;;;;;;2.13;1.50;;;12.10;63.80;;;;;;5002477;28;20294;-71
2021/11/30 00:43:42;;;;;;;1.98;1.58;;;12.10;63.10;;;;;;5002471;28;20050;-72
2021/11/30 00:46:20;;;;;;;2.15;1.80;;;12.10;63.20;;;;;;5002330;28;20018;-72
2021/11/30 00:48:46;;;;;;;1.58;1.42;;;12.10;63.30;;;;;;5017442;28;20023;-71
2021/11/30 00:51:17;;;;;;;2.33;1.67;;;12.10;63.30;;;;;;5017360;28;20034;-72
2021/11/30 00:53:45;;;;;;;1.67;1.58;;;12.10;63.30;;;;;;5002128;28;20050;-71
2021/11/30 00:56:12;;;;;;;2.05;1.50;;;12.10;63.20;;;;;;5002102;28;20038;-73
2021/11/30 00:58:38;;;;;;;1.70;1.48;;;12.10;63.20;;;;;;5002120;28;20030;-71
2021/11/30 01:01:04;;;;;;;1.52;1.42;;;12.10;63.10;;;;;;5002165;28;20014;-72
2021/11/30 01:03:31;;;;;;;2.13;1.75;;;12.10;63.20;;;;;;5002033;28;20037;-72
2021/11/30 01:05:56;;;;;;;1.90;1.55;;;12.10;63.30;;;;;;5000904;28;20057;-72
2021/11/30 01:08:22;;;;;;;1.80;1.30;;;12.10;63.30;;;;;;5017131;28;20026;-72
2021/11/30 01:10:48;;;;;;;2.28;1.83;;;12.10;63.30;;;;;;5001859;28;20057;-72
2021/11/30 01:13:15;;;;;;;1.42;1.30;;;12.10;63.20;;;;;;5001874;28;20021;-72
2021/11/30 01:15:41;;;;;;;2.08;1.50;;;12.10;63.20;;;;;;5001833;28;20026;-72
2021/11/30 01:18:07;;;;;;;1.83;1.50;;;12.10;63.20;;;;;;5001662;28;20030;-72
2021/11/30 01:20:34;;;;;;;2.03;1.52;;;12.10;63.20;;;;;;5001766;28;20029;-72
2021/11/30 01:22:59;;;;;;;1.42;1.33;;;12.10;63.20;;;;;;5001747;28;20026;-71
2021/11/30 01:25:26;;;;;;;2.58;1.48;;;12.10;63.30;;;;;;5000538;28;20054;-72
2021/11/30 01:27:52;;;;;;;1.88;1.35;;;12.00;63.30;;;;;;5001586;28;20081;-72
2021/11/30 01:30:19;;;;;;;1.80;1.45;;;12.10;63.30;;;;;;5001416;28;20325;-72
2021/11/30 01:32:45;;;;;;;1.88;1.30;;;12.10;63.20;;;;;;5001423;28;20528;-72
2021/11/30 01:35:13;;;;;;;1.50;1.40;;;12.10;63.20;;;;;;5001467;28;20188;-72
2021/11/30 01:37:39;;;;;;;1.52;1.38;;;12.10;63.20;;;;;;5001358;28;20029;-73
2021/11/30 01:40:11;;;;;;;1.63;1.52;;;12.10;63.30;;;;;;5001367;28;20023;-71
2021/11/30 01:42:41;;;;;;;1.85;1.50;;;12.10;63.40;;;;;;5016467;28;20137;-72
2021/11/30 01:45:10;;;;;;;1.30;1.20;;;12.10;63.40;;;;;;5001305;28;20294;-71
2021/11/30 01:50:10;;;;;;;1.30;1.20;;;12.10;63.30;;;;;;5001483;28;19910;-72
2021/11/30 01:52:36;;;;;;;1.40;1.30;;;12.10;63.20;;;;;;5016286;28;20054;-72
2021/11/30 01:55:04;;;;;;;1.45;1.35;;;12.10;63.20;;;;;;5016209;28;20050;-71
2021/11/30 01:57:30;;;;;;;1.45;1.35;;;12.10;63.20;;;;;;5000995;28;20117;-72
2021/11/30 01:59:56;;;;;;;1.45;1.20;;;12.10;63.20;;;;;;5001004;28;20018;-72
2021/11/30 02:02:22;;;;;;;1.33;1.23;;;12.00;63.30;;;;;;5000985;28;20029;-72
2021/11/30 02:04:48;;;;;;;1.20;1.00;;;12.00;63.30;;;;;;5000929;28;20018;-72
2021/11/30 02:07:14;;;;;;;1.75;1.40;;;12.00;63.30;;;;;;5000925;28;20034;-73
2021/11/30 02:09:42;;;;;;;1.45;1.35;;;12.00;63.20;;;;;;5000875;28;20038;-72
2021/11/30 02:12:08;;;;;;;1.35;1.25;;;12.10;63.20;;;;;;5000831;28;20033;-72
2021/11/30 02:14:35;;;;;;;1.40;1.30;;;12.10;63.20;;;;;;5000834;28;20336;-72
2021/11/30 02:17:02;;;;;;;1.65;1.55;;;12.10;63.20;;;;;;5015719;28;20041;-73
2021/11/30 02:19:28;;;;;;;1.30;1.20;;;12.10;63.20;;;;;;5015769;28;20050;-72
2021/11/30 02:21:55;;;;;;;1.70;1.13;;;12.10;63.20;;;;;;5000606;28;20053;-72
2021/11/30 02:24:21;;;;;;;1.55;1.33;;;12.10;63.20;;;;;;5000603;28;20347;-72
2021/11/30 02:26:47;;;;;;;1.42;1.17;;;12.00;63.20;;;;;;5000538;28;20029;-72
2021/11/30 02:29:13;;;;;;;1.50;1.40;;;12.00;63.20;;;;;;5000530;28;20026;-72
2021/11/30 02:31:45;;;;;;;1.33;1.23;;;12.10;63.20;;;;;;5000549;28;20026;-72
2021/11/30 02:34:11;;;;;;;1.50;1.40;;;12.00;63.20;;;;;;5000493;28;20037;-71
2021/11/30 02:36:51;;;;;;;1.38;1.27;;;12.00;63.20;;;;;;5000375;28;20113;-72
2021/11/30 02:39:20;;;;;;;1.60;1.27;;;12.00;63.30;;;;;;5000384;28;20022;-72
2021/11/30 02:41:47;;;;;;;2.47;1.60;;;12.00;63.30;;;;;;5015035;28;20098;-71
2021/11/30 02:44:15;;;;;;;1.55;1.45;;;12.00;63.40;;;;;;5000378;28;20026;-72
2021/11/30 02:46:47;;;;;;;1.25;1.15;;;12.00;63.40;;;;;;4999026;28;20027;-71
2021/11/30 02:49:25;;;;;;;2.00;1.20;;;12.00;63.40;;;;;;5000248;28;20036;-72
2021/11/30 02:51:56;;;;;;;1.40;1.30;;;12.00;63.30;;;;;;5000176;28;20022;-72
2021/11/30 02:54:23;;;;;;;1.40;1.30;;;12.00;63.30;;;;;;5000157;28;20058;-72
2021/11/30 02:56:53;;;;;;;1.90;1.70;;;12.00;63.20;;;;;;5015162;28;20038;-72
2021/11/30 02:59:20;;;;;;;1.50;1.23;;;12.00;63.20;;;;;;5000114;28;20018;-72
2021/11/30 03:02:07;;;;;;;2.85;1.58;;;12.00;63.30;;;;;;4998840;28;20345;-72
2021/11/30 03:04:33;;;;;;;1.60;1.30;;;12.00;63.30;;;;;;5000056;28;20094;-71
2021/11/30 03:06:59;;;;;;;1.33;1.17;;;12.00;63.30;;;;;;5000002;28;20033;-72
2021/11/30 03:09:25;;;;;;;1.77;1.35;;;12.00;63.20;;;;;;5015159;28;20049;-72
2021/11/30 03:11:52;;;;;;;1.15;1.10;;;12.00;63.30;;;;;;5015101;28;20018;-71
2021/11/30 03:14:18;;;;;;;1.90;1.35;;;12.00;63.30;;;;;;4999924;28;20030;-72
2021/11/30 03:16:48;;;;;;;1.50;1.40;;;12.00;63.30;;;;;;4999869;28;20019;-72
2021/11/30 03:19:15;;;;;;;1.85;1.50;;;12.00;63.40;;;;;;5015073;28;20034;-71
2021/11/30 03:21:42;;;;;;;1.83;1.40;;;12.00;63.40;;;;;;4999866;28;20021;-72
2021/11/30 03:24:07;;;;;;;1.33;1.23;;;12.00;64.00;;;;;;4999923;28;20229;-72
2021/11/30 03:26:33;;;;;;;1.50;1.40;;;12.00;63.40;;;;;;5015002;28;20046;-72
2021/11/30 03:28:59;;;;;;;1.63;1.33;;;12.00;63.40;;;;;;4998552;28;20447;-72
2021/11/30 03:34:05;;;;;;;1.38;1.20;;;12.00;63.30;;;;;;4999826;28;20085;-71
2021/11/30 03:36:33;;;;;;;1.67;1.33;;;12.00;63.30;;;;;;4999750;28;20026;-73
2021/11/30 03:39:00;;;;;;;1.40;1.27;;;12.00;63.30;;;;;;4999776;28;20025;-71
2021/11/30 03:41:29;;;;;;;1.52;1.35;;;12.00;63.30;;;;;;5014719;28;20065;-72
2021/11/30 03:43:54;;;;;;;;;;;11.90;63.30;;;;;;5000198;28;20255;-72
2021/11/30 03:46:20;;;;;;;1.42;1.33;;;12.00;63.30;;;;;;4999692;28;19917;-72
2021/11/30 03:48:46;;;;;;;1.20;1.10;;;12.00;63.20;;;;;;4999691;28;20333;-72
2021/11/30 03:51:12;;;;;;;1.40;1.27;;;12.00;63.30;;;;;;4999714;28;20025;-72
2021/11/30 03:53:37;;;;;;;2.05;1.60;;;12.00;63.40;;;;;;4999446;28;20053;-72
2021/11/30 03:56:03;;;;;;;1.38;1.10;;;11.90;63.30;;;;;;5003200;28;20022;-72
2021/11/30 03:58:29;;;;;;;1.15;1.05;;;11.90;63.40;;;;;;5002226;28;20030;-72
2021/11/30 04:00:55;;;;;;;1.77;1.35;;;11.90;63.50;;;;;;5003348;28;20050;-73
2021/11/30 04:03:22;;;;;;;1.15;1.05;;;11.90;63.50;;;;;;5003381;28;20049;-72
2021/11/30 04:05:48;;;;;;;1.40;1.30;;;11.90;63.50;;;;;;5003217;28;20010;-72
2021/11/30 04:08:14;;;;;;;2.25;1.20;;;11.90;63.40;;;;;;5003217;28;20020;-73
2021/11/30 04:10:39;;;;;;;1.30;1.08;;;12.00;63.50;;;;;;5003702;28;20060;-72
2021/11/30 04:13:05;;;;;;;1.73;1.60;;;12.00;63.40;;;;;;5001876;28;20048;-72
2021/11/30 04:15:32;;;;;;;1.40;1.30;;;12.00;63.40;;;;;;5003075;28;20085;-72
2021/11/30 04:17:58;;;;;;;1.35;1.25;;;11.90;63.30;;;;;;5002991;28;20207;-71
2021/11/30 04:20:23;;;;;;;1.42;1.15;;;11.90;63.30;;;;;;5003092;28;20018;-71
2021/11/30 04:22:49;;;;;;;1.95;1.40;;;11.90;63.30;;;;;;5002881;28;20026;-71
2021/11/30 04:25:15;;;;;;;1.65;1.42;;;12.00;63.30;;;;;;5017965;28;20126;-71
2021/11/30 04:27:41;;;;;;;1.20;1.10;;;12.00;63.20;;;;;;5002860;28;20034;-71
2021/11/30 04:30:09;;;;;;;1.17;1.00;;;12.00;63.30;;;;;;5002783;28;20018;-72
2021/11/30 04:32:35;;;;;;;1.55;1.27;;;11.90;63.30;;;;;;5017891;28;20341;-72
2021/11/30 04:35:01;;;;;;;1.40;1.25;;;11.90;63.30;;;;;;5002743;28;20041;-72
2021/11/30 04:37:27;;;;;;;1.83;1.13;;;11.90;63.30;;;;;;5001453;28;20050;-72
2021/11/30 04:39:52;;;;;;;1.33;1.23;;;11.90;63.30;;;;;;5017799;28;20380;-71
2021/11/30 04:42:20;;;;;;;1.40;1.30;;;11.90;63.30;;;;;;5002670;28;20026;-72
2021/11/30 04:44:59;;;;;;;1.55;1.25;;;11.90;63.30;;;;;;5002663;28;20014;-72
2021/11/30 04:47:29;;;;;;;1.05;1.00;;;11.90;63.30;;;;;;5002590;28;20030;-72
2021/11/30 04:49:58;;;;;;;1.00;1.00;;;11.90;63.30;;;;;;5002486;28;20033;-72
2021/11/30 04:52:24;;;;;;;1.30;1.20;;;12.00;63.20;;;;;;5002386;28;20042;-71
2021/11/30 04:54:49;;;;;;;1.63;1.50;;;12.00;63.20;;;;;;5001505;28;20030;-72
2021/11/30 04:57:15;;;;;;;1.33;1.15;;;12.00;63.30;;;;;;5002368;28;20314;-73
2021/11/30 04:59:41;;;;;;;1.30;1.20;;;12.00;63.30;;;;;;5001138;28;20201;-72
2021/11/30 05:02:07;;;;;;;1.52;1.38;;;12.00;63.20;;;;;;5002355;28;20027;-72
2021/11/30 05:04:34;;;;;;;1.88;1.10;;;12.00;63.30;;;;;;5017262;28;20494;-72
2021/11/30 05:07:00;;;;;;;1.33;1.23;;;11.90;63.20;;;;;;5017082;28;20045;-71
2021/11/30 05:09:26;;;;;;;1.13;1.02;;;11.90;63.30;;;;;;5002232;28;20266;-71
2021/11/30 05:11:51;;;;;;;1.40;1.30;;;11.90;63.40;;;;;;5017206;28;20065;-72
2021/11/30 05:14:17;;;;;;;1.75;1.38;;;11.90;63.30;;;;;;5002116;28;20037;-71
2021/11/30 05:16:43;;;;;;;1.73;1.23;;;11.90;63.30;;;;;;5002016;28;20066;-70
2021/11/30 05:19:09;;;;;;;1.73;1.25;;;11.90;63.50;;;;;;5001975;28;20314;-72
2021/11/30 05:21:35;;;;;;;1.52;1.42;;;11.90;63.40;;;;;;5001962;28;20109;-72
2021/11/30 05:24:04;;;;;;;1.38;1.27;;;11.90;63.30;;;;;;5001964;28;20026;-71
2021/11/30 05:26:30;;;;;;;1.77;1.23;;;11.90;63.30;;;;;;5001887;28;20022;-71
2021/11/30 05:28:56;;;;;;;1.10;1.00;;;11.90;63.30;;;;;;5001839;28;20377;-71
2021/11/30 05:31:22;;;;;;;1.30;1.10;;;11.90;63.30;;;;;;5001785;28;20125;-71
2021/11/30 05:33:48;;;;;;;1.27;1.17;;;11.90;63.40;;;;;;5001692;28;20023;-72
2021/11/30 05:36:17;;;;;;;1.55;1.05;;;11.90;63.50;;;;;;5001836;28;20049;-71
2021/11/30 05:38:43;;;;;;;;;;;11.80;63.50;;;;;;5002097;28;20073;-72
2021/11/30 05:41:09;;;;;;;1.55;1.35;;;11.90;64.10;;;;;;5001699;28;19902;-71
2021/11/30 05:43:35;;;;;;;1.95;1.33;;;11.90;63.40;;;;;;5001559;28;20085;-72
2021/11/30 05:46:00;;;;;;;1.40;1.25;;;11.90;63.40;;;;;;5001599;28;20092;-72
2021/11/30 05:48:26;;;;;;;2.17;1.45;;;11.90;63.40;;;;;;5000295;28;20026;-72
2021/11/30 05:50:53;;;;;;;2.03;1.35;;;11.90;63.40;;;;;;5001662;28;20068;-71
2021/11/30 05:53:19;;;;;;;1.73;1.40;;;11.90;63.40;;;;;;5016324;28;20042;-72
2021/11/30 05:55:52;;;;;;;1.42;1.33;;;11.90;63.40;;;;;;5001407;28;20353;-71
2021/11/30 05:58:18;;;;;;;1.67;1.55;;;11.90;63.40;;;;;;5001270;28;20093;-71
2021/11/30 06:00:44;;;;;;;1.35;1.13;;;11.90;63.40;;;;;;5001259;28;20010;-71
2021/11/30 06:03:28;;;;;;;1.30;1.20;;;11.90;63.30;;;;;;5001264;28;20018;-71
2021/11/30 06:05:54;;;;;;;1.30;1.13;;;11.90;63.30;;;;;;5001142;28;20313;-72
2021/11/30 06:08:20;;;;;;;1.20;1.08;;;11.90;63.40;;;;;;5001106;28;20037;-72
2021/11/30 06:10:45;;;;;;;2.10;1.45;;;11.90;63.40;;;;;;5001060;28;20094;-71
2021/11/30 06:13:11;;;;;;;1.25;1.13;;;11.90;63.40;;;;;;4999756;28;20313;-71
2021/11/30 06:15:37;;;;;;;1.27;1.17;;;11.90;63.50;;;;;;5001012;28;20068;-72
2021/11/30 06:18:03;;;;;;;1.30;1.20;;;11.80;63.40;;;;;;4998932;28;20026;-72
2021/11/30 06:20:29;;;;;;;1.20;1.10;;;11.90;63.50;;;;;;5000924;28;20029;-72
2021/11/30 06:22:55;;;;;;;1.30;1.20;;;11.90;63.30;;;;;;5015939;28;20096;-72
2021/11/30 06:25:20;;;;;;;1.33;1.23;;;11.90;63.30;;;;;;5000801;28;20026;-70
2021/11/30 06:27:46;;;;;;;1.48;1.35;;;11.90;63.30;;;;;;5000707;28;20018;-72
2021/11/30 06:30:13;;;;;;;1.92;1.50;;;11.90;63.40;;;;;;5000708;28;20030;-72
2021/11/30 06:32:39;;;;;;;1.45;1.30;;;11.80;63.40;;;;;;5000718;28;20018;-71
2021/11/30 06:35:06;;;;;;;1.25;1.10;;;11.80;63.50;;;;;;5000670;28;20374;-71
2021/11/30 06:37:32;;;;;;;1.73;1.30;;;11.80;63.50;;;;;;5000532;28;20037;-71
2021/11/30 06:39:58;;;;;;;1.13;1.00;;;11.90;63.50;;;;;;5000587;28;20017;-72
2021/11/30 06:42:25;;;;;;;1.42;1.27;;;11.90;63.40;;;;;;4999396;28;20413;-71
2021/11/30 06:44:51;;;;;;;1.58;1.48;;;11.90;63.30;;;;;;5000544;28;20049;-72
2021/11/30 06:47:17;;;;;;;1.20;1.10;;;11.90;63.30;;;;;;5000486;28;20022;-71
2021/11/30 06:49:43;;;;;;;1.20;1.10;;;11.90;63.40;;;;;;5000505;28;20038;-72
2021/11/30 06:52:10;;;;;;;1.45;1.30;;;11.90;63.40;;;;;;5000248;28;20022;-72
2021/11/30 06:54:35;;;;;;;1.17;0.93;;;11.90;63.40;;;;;;5000479;28;20044;-72
2021/11/30 06:57:01;;;;;;;1.35;1.15;;;11.80;63.40;;;;;;4999329;28;20093;-71
2021/11/30 06:59:29;;;;;;;1.65;1.55;;;11.80;63.40;;;;;;4999078;28;20026;-72
2021/11/30 07:01:54;;;;;;;1.33;1.20;;;11.90;63.40;;;;;;5000288;28;20044;-72
2021/11/30 07:04:22;;;;;;;1.48;1.00;;;11.90;63.30;;;;;;5000294;28;20023;-71
2021/11/30 07:07:00;;;;;;;1.63;1.30;;;11.90;63.30;;;;;;5000248;28;20063;-72
2021/11/30 07:09:38;;;;;;;1.27;1.02;;;11.80;63.40;;;;;;5000162;28;20069;-71
2021/11/30 07:12:12;;;;;;;1.50;1.13;;;11.90;63.30;;;;;;5000185;28;20022;-71
2021/11/30 07:14:38;;;;;;;1.25;1.15;;;11.80;63.30;;;;;;5015268;28;20049;-71
2021/11/30 07:17:04;;;;;;;1.23;1.13;;;11.90;63.40;;;;;;5000060;28;20444;-72
2021/11/30 07:19:31;;;;;;;1.20;1.10;;;11.90;63.30;;;;;;5000062;28;20238;-72
2021/11/30 07:21:57;;;;;;;1.23;1.13;;;11.90;63.30;;;;;;5000061;28;20509;-71
2021/11/30 07:24:23;;;;;;;1.65;1.27;;;11.90;63.20;;;;;;5000080;28;20023;-72
2021/11/30 07:26:49;;;;;;;1.40;1.20;;;11.90;63.20;;;;;;5000045;28;20014;-72
2021/11/30 07:29:14;;;;;;;1.30;1.20;;;11.90;63.20;;;;;;5002583;28;20337;-72
2021/11/30 07:31:42;;;;;;;1.77;1.30;;;11.90;63.10;;;;;;5019126;28;20022;-73
2021/11/30 07:34:09;;;;;;;1.33;0.90;;;12.00;63.20;;;;;;5004103;28;20014;-72
2021/11/30 07:36:35;;;;;;;1.10;1.00;;;12.00;63.20;;;;;;5003964;28;20033;-72
2021/11/30 07:39:02;;;;;;;1.30;1.10;;;12.00;63.10;;;;;;5019050;28;20022;-70
2021/11/30 07:41:27;;;;;;;1.58;1.30;;;12.00;63.00;;;;;;5003787;28;20088;-71
2021/11/30 07:43:53;;;;;;;1.30;1.20;;;12.00;63.00;;;;;;5018955;28;20235;-72
2021/11/30 07:46:19;;;;;;;1.30;1.10;;;12.00;63.00;;;;;;5003754;28;20041;-71
2021/11/30 07:48:45;;;;;;;1.85;1.52;;;12.00;63.10;;;;;;5003705;28;20030;-72
2021/11/30 07:51:15;;;;;;;1.42;1.33;;;12.00;63.00;;;;;;5003744;28;20098;-72
2021/11/30 07:53:41;;;;;;;1.88;1.17;;;12.00;63.00;;;;;;5003468;28;20569;-70
2021/11/30 07:56:07;;;;;;;1.10;1.02;;;12.00;62.90;;;;;;5002353;28;20061;-71
2021/11/30 07:58:33;;;;;;;1.35;1.25;;;12.00;62.90;;;;;;5018710;28;20022;-73
2021/11/30 08:00:59;;;;;;;1.15;1.05;;;12.00;62.90;;;;;;5003449;28;20081;-72
2021/11/30 08:03:25;;;;;;;2.35;1.38;;;12.00;62.80;;;;;;5003502;28;20022;-72
2021/11/30 08:05:51;;;;;;;1.10;1.00;;;12.00;62.80;;;;;;5018555;28;20339;-70
2021/11/30 08:08:17;;;;;;;1.20;1.10;;;12.00;62.90;;;;;;5018511;28;20030;-72
2021/11/30 08:10:43;;;;;;;1.52;1.20;;;12.00;62.80;;;;;;5002110;28;20034;-72
2021/11/30 08:13:10;;;;;;;1.27;1.10;;;12.00;62.90;;;;;;5018387;28;20049;-72
2021/11/30 08:15:37;;;;;;;1.70;1.17;;;12.00;62.80;;;;;;5001948;28;20101;-72
2021/11/30 08:18:04;;;;;;;1.50;1.20;;;12.10;62.90;;;;;;5003146;28;20222;-72
2021/11/30 08:20:31;;;;;;;1.10;1.00;;;12.00;62.70;;;;;;5001890;28;20568;-72
2021/11/30 08:22:57;;;;;;;1.20;1.10;;;12.10;63.40;;;;;;5003105;28;20019;-71
2021/11/30 08:25:23;;;;;;;2.10;1.40;;;12.10;62.70;;;;;;5003031;28;20029;-71
2021/11/30 08:27:50;;;;;;;1.17;1.08;;;12.10;62.60;;;;;;5002948;28;20086;-71
2021/11/30 08:30:16;;;;;;;1.20;1.10;;;12.10;62.70;;;;;;5001747;28;20105;-71
2021/11/30 08:32:41;;;;;;;0.98;0.85;;;12.10;62.70;;;;;;5001571;28;20183;-71
2021/11/30 08:35:08;;;;;;;1.42;1.33;;;12.10;62.70;;;;;;5001663;28;20036;-71
2021/11/30 08:37:34;;;;;;;1.38;1.20;;;12.10;62.70;;;;;;5002795;28;20025;-71
2021/11/30 08:40:00;;;;;;;1.10;0.98;;;12.10;62.70;;;;;;5002081;28;20042;-70
2021/11/30 08:42:26;;;;;;;1.23;1.10;;;12.10;63.20;;;;;;5017830;28;20327;-71
2021/11/30 08:44:53;;;;;;;1.38;1.25;;;12.20;62.40;;;;;;5002719;28;20038;-71
2021/11/30 08:47:21;;;;;;;0.88;0.88;;;12.20;62.30;;;;;;5002580;28;20022;-71
2021/11/30 08:49:47;;;;;;;1.23;1.13;;;12.20;62.30;;;;;;5002567;28;20029;-71
2021/11/30 08:52:19;;;;;;;1.20;1.10;;;12.30;62.20;;;;;;5002288;28;20310;-72
2021/11/30 08:54:46;;;;;;;1.20;1.10;;;12.30;62.00;;;;;;5002403;28;20046;-74
2021/11/30 08:57:13;;;;;;;1.42;1.33;;;12.40;61.80;;;;;;5002253;28;20203;-72
2021/11/30 08:59:39;;;;;;;1.30;1.20;;;12.50;61.60;;;;;;5002271;28;20018;-72
2021/11/30 09:02:06;;;;;;;1.58;1.40;;;12.50;61.30;;;;;;5017419;28;20400;-73
2021/11/30 09:04:32;;;;;;;1.23;1.13;;;12.60;61.10;;;;;;5002205;28;20565;-71
2021/11/30 09:06:58;;;;;;;1.05;0.98;;;12.70;60.50;;;;;;5002145;28;20045;-72
2021/11/30 09:09:24;;;;;;;1.30;1.20;;;12.70;60.40;;;;;;5002153;28;20397;-72
2021/11/30 09:11:50;;;;;;;1.45;1.27;;;12.80;60.20;;;;;;5002021;28;20030;-71
2021/11/30 09:14:21;;;;;;;1.10;1.00;;;12.80;59.70;;;;;;5002120;28;20344;-71
2021/11/30 09:16:47;;;;;;;1.00;1.00;;;12.80;60.00;;;;;;5001920;28;20085;-71
2021/11/30 09:19:13;;;;;;;1.20;1.10;;;12.90;60.00;;;;;;5002035;28;20046;-72
2021/11/30 09:21:39;;;;;;;1.20;1.10;;;12.90;60.00;;;;;;5001914;28;20041;-71
2021/11/30 09:24:05;;;;;;;1.25;1.15;;;12.90;60.00;;;;;;5001907;28;20034;-72
2021/11/30 09:26:31;;;;;;;1.50;1.10;;;12.90;59.90;;;;;;5000668;28;20026;-71
2021/11/30 09:28:56;;;;;;;1.27;1.00;;;12.90;59.90;;;;;;5000563;28;20022;-72
2021/11/30 09:31:22;;;;;;;1.20;1.10;;;12.90;59.90;;;;;;5001739;28;20027;-72
2021/11/30 09:33:48;;;;;;;1.20;1.10;;;12.90;60.00;;;;;;5016774;28;20348;-72
2021/11/30 09:36:15;;;;;;;0.80;0.80;;;12.90;60.00;;;;;;5000374;28;20093;-72
2021/11/30 09:38:42;;;;;;;1.00;0.90;;;12.90;59.90;;;;;;5001559;28;20014;-72
2021/11/30 09:41:07;;;;;;;1.13;0.93;;;12.90;59.80;;;;;;5016615;28;20072;-72
2021/11/30 09:43:36;;;;;;;1.63;1.02;;;13.00;59.90;;;;;;5001482;28;20014;-71
2021/11/30 09:46:03;;;;;;;0.82;0.82;;;13.00;59.80;;;;;;5001517;28;20018;-72
2021/11/30 09:48:30;;;;;;;1.15;1.02;;;13.00;60.00;;;;;;5001352;28;20022;-72
2021/11/30 09:50:57;;;;;;;0.90;0.90;;;13.00;60.20;;;;;;5001193;28;20030;-71
2021/11/30 09:53:24;;;;;;;1.23;1.05;;;13.00;60.20;;;;;;5000369;28;20045;-71
2021/11/30 09:55:50;;;;;;;1.27;1.15;;;13.00;59.90;;;;;;5001281;28;20038;-71
2021/11/30 09:58:18;;;;;;;1.05;0.90;;;13.00;59.90;;;;;;5001155;28;20074;-71
2021/11/30 10:00:46;;;;;;;1.30;1.20;;;13.00;59.90;;;;;;5001210;28;20025;-72
2021/11/30 10:03:13;;;;;;;1.30;1.05;;;13.00;59.80;;;;;;5001110;28;20085;-72
2021/11/30 10:05:39;;;;;;;1.08;1.02;;;13.00;59.80;;;;;;5001097;28;20020;-72
2021/11/30 10:08:07;;;;;;;1.33;1.02;;;13.00;59.80;;;;;;5001093;28;20030;-71
2021/11/30 10:10:38;;;;;;;1.08;0.98;;;13.10;59.90;;;;;;5000970;28;20030;-71
2021/11/30 10:13:04;;;;;;;0.95;0.80;;;13.00;59.60;;;;;;5001024;28;20025;-71
2021/11/30 10:15:45;;;;;;;1.27;1.05;;;13.00;59.70;;;;;;5000921;28;20029;-71
2021/11/30 10:18:23;;;;;;;1.30;1.27;;;13.10;59.90;;;;;;5000837;28;20377;-71
2021/11/30 10:21:08;;;;;;;1.57;1.30;;;13.00;59.50;;;;;;5000856;28;20014;-71
2021/11/30 10:23:48;;;;;;;1.20;1.10;;;13.10;59.80;;;;;;5000805;28;20247;-72
2021/11/30 10:26:15;;;;;;;1.60;1.02;;;13.10;60.00;;;;;;5000694;28;20018;-72
2021/11/30 10:28:40;;;;;;;1.13;1.02;;;13.10;60.30;;;;;;5000678;28;20033;-72
2021/11/30 10:31:09;;;;;;;0.73;0.65;;;13.10;60.40;;;;;;5000700;28;20027;-71
2021/11/30 10:33:35;;;;;;;1.23;1.13;;;13.00;60.40;;;;;;4999441;28;20410;-72
2021/11/30 10:36:02;;;;;;;1.60;1.20;;;13.00;60.40;;;;;;5000581;28;20022;-71
2021/11/30 10:38:33;;;;;;;1.50;1.40;;;13.00;61.00;;;;;;5000402;28;20014;-72
2021/11/30 10:41:12;;;;;;;1.17;1.08;;;13.00;60.20;;;;;;5000470;28;20261;-72
2021/11/30 10:43:58;;;;;;;2.30;1.10;;;13.00;60.20;;;;;;5000396;28;20014;-71
2021/11/30 10:46:34;;;;;;;1.40;1.30;;;13.00;60.30;;;;;;4999178;28;20018;-71
2021/11/30 10:49:01;;;;;;;1.00;1.00;;;13.10;60.80;;;;;;5000297;28;20230;-71
2021/11/30 10:51:39;;;;;;;1.00;1.00;;;13.00;60.10;;;;;;5000297;28;20026;-71
2021/11/30 10:54:05;;;;;;;1.70;1.17;;;13.10;60.20;;;;;;5000205;28;20165;-73
2021/11/30 10:56:31;;;;;;;1.25;1.15;;;13.10;60.00;;;;;;4999301;28;20275;-72
2021/11/30 10:58:56;;;;;;;1.20;1.10;;;13.00;59.90;;;;;;5000145;28;20079;-72
2021/11/30 11:01:25;;;;;;;1.13;1.02;;;13.10;60.10;;;;;;4998996;28;20022;-72
2021/11/30 11:04:04;;;;;;;1.13;0.93;;;13.10;60.10;;;;;;4999817;28;20089;-71
2021/11/30 11:06:31;;;;;;;1.50;1.30;;;13.10;60.30;;;;;;5000089;28;20022;-71
2021/11/30 11:09:02;;;;;;;0.80;0.80;;;13.10;60.20;;;;;;5015244;28;20236;-72
2021/11/30 11:11:33;;;;;;;1.05;0.90;;;13.10;60.20;;;;;;5000112;28;20068;-72
2021/11/30 11:14:00;;;;;;;0.90;0.90;;;13.10;60.20;;;;;;5015190;28;20018;-72
2021/11/30 11:16:31;;;;;;;0.93;0.90;;;13.00;60.10;;;;;;4999987;28;20026;-72
2021/11/30 11:18:59;;;;;;;1.05;0.95;;;13.00;60.20;;;;;;4999986;28;20034;-72
2021/11/30 11:21:41;;;;;;;1.17;1.07;;;13.00;60.20;;;;;;5000029;28;20022;-72
2021/11/30 11:24:25;;;;;;;1.15;1.08;;;13.00;60.20;;;;;;5000025;28;20337;-71
2021/11/30 11:26:56;;;;;;;1.10;1.00;;;13.10;60.30;;;;;;4999939;28;20322;-71
2021/11/30 11:29:26;;;;;;;1.70;1.33;;;13.00;60.50;;;;;;4999762;28;20057;-71
2021/11/30 11:31:55;;;;;;;1.10;1.00;;;13.00;60.20;;;;;;4999839;28;20065;-72
2021/11/30 11:34:25;;;;;;;1.20;1.00;;;13.00;60.40;;;;;;4999826;28;20089;-72
2021/11/30 11:36:52;;;;;;;1.30;1.20;;;13.00;60.40;;;;;;4999736;28;20219;-73
2021/11/30 11:39:20;;;;;;;1.38;1.02;;;13.00;60.30;;;;;;4998518;28;20033;-73
2021/11/30 11:42:13;;;;;;;1.15;1.02;;;13.00;60.10;;;;;;5014973;28;20029;-73
2021/11/30 11:44:40;;;;;;;0.98;0.93;;;13.00;60.30;;;;;;4998706;28;20030;-72
2021/11/30 11:47:19;;;;;;;1.13;0.93;;;13.00;60.40;;;;;;4999761;28;20033;-72
2021/11/30 11:49:48;;;;;;;1.13;0.90;;;13.00;60.20;;;;;;5014973;28;20034;-72
2021/11/30 11:52:26;;;;;;;1.17;1.02;;;13.00;60.30;;;;;;4998496;28;20034;-71
2021/11/30 11:55:03;;;;;;;1.00;0.90;;;13.00;60.30;;;;;;4999753;28;20030;-71
2021/11/30 11:57:31;;;;;;;1.05;0.95;;;13.00;60.30;;;;;;4998342;28;20065;-71
2021/11/30 12:00:17;;;;;;;0.73;0.73;;;13.00;60.50;;;;;;4999290;28;20021;-72
2021/11/30 12:02:58;;;;;;;1.08;0.98;;;13.00;60.30;;;;;;4999558;28;20010;-72
2021/11/30 12:05:43;;;;;;;0.90;0.90;;;13.00;60.40;;;;;;5014892;28;20023;-72
2021/11/30 12:08:33;;;;;;;1.25;1.00;;;13.00;60.40;;;;;;5014601;28;20022;-71
2021/11/30 12:11:01;;;;;;;0.82;0.80;;;13.00;60.40;;;;;;5014754;28;20365;-71
2021/11/30 12:13:27;;;;;;;1.13;1.02;;;13.00;60.30;;;;;;4998359;28;20053;-73
2021/11/30 12:16:05;;;;;;;1.25;1.10;;;13.00;60.40;;;;;;4999924;28;20037;-71
2021/11/30 12:18:33;;;;;;;0.98;0.90;;;13.00;60.60;;;;;;5003079;28;20030;-72
2021/11/30 12:21:17;;;;;;;0.93;0.93;;;13.00;60.60;;;;;;5001937;28;20098;-72
2021/11/30 12:23:47;;;;;;;0.95;0.90;;;13.00;60.60;;;;;;5003019;28;20218;-71
2021/11/30 12:26:42;;;;;;;1.20;1.10;;;13.00;60.40;;;;;;5002941;28;20015;-72
2021/11/30 12:29:17;;;;;;;1.15;1.05;;;13.10;60.20;;;;;;5001683;28;20265;-73
2021/11/30 12:31:43;;;;;;;0.73;0.70;;;13.10;60.20;;;;;;5001716;28;20097;-72
2021/11/30 12:34:09;;;;;;;1.27;1.17;;;13.10;60.20;;;;;;5017907;28;20029;-70
2021/11/30 12:36:40;;;;;;;0.77;0.77;;;13.00;60.20;;;;;;5017830;28;20030;-72
2021/11/30 12:39:10;;;;;;;1.17;1.08;;;13.00;60.40;;;;;;5002691;28;20030;-71
2021/11/30 12:41:42;;;;;;;1.35;1.25;;;13.00;60.40;;;;;;5017864;28;20026;-72
2021/11/30 12:44:22;;;;;;;1.52;1.40;;;13.00;60.20;;;;;;5002650;28;20341;-71
2021/11/30 12:46:51;;;;;;;1.30;1.20;;;13.10;60.40;;;;;;5002897;28;20049;-72
2021/11/30 12:49:25;;;;;;;1.50;1.27;;;13.10;60.30;;;;;;5002729;28;20026;-71
2021/11/30 12:52:06;;;;;;;1.40;0.98;;;13.10;60.20;;;;;;5002582;28;20054;-72
2021/11/30 12:54:35;;;;;;;0.75;0.75;;;13.10;60.10;;;;;;5001327;28;20433;-71
2021/11/30 12:57:02;;;;;;;1.23;0.98;;;13.10;59.90;;;;;;5017757;28;20145;-72
2021/11/30 12:59:40;;;;;;;0.75;0.75;;;13.10;59.90;;;;;;5017963;28;20108;-72
2021/11/30 13:02:30;;;;;;;1.20;1.10;;;13.10;59.90;;;;;;5002696;28;20027;-71